x

Orange Beach - 44 Nm Se Of Mobile, Al (42012) Wave Buoy

11:50pm - Thu 21st Aug 2014 All times are CDT. -5 hours from GMT.

  • Sig Wave height 1.0ft
  • Swell Direction
  • Peak Period 3s
  • Average Period 3s
  • Wind
    9mph
  • Sea Temp 86°f
  • Air Temp 85°f
  • Sea Pressure 1019.4mb
  • Orange Beach - 44 Nm Se Of Mobile, Al
  • Orange Beach - 44 Nm Se Of Mobile, Al

More Historic Weather Station data

Upgrade to MSW Pro to gain access to the past 30 days of data for over 8000 Wavebouys and Weather Stations around the globe.

Join Pro

Comparision Forecast

View Surf forecast
   
Thu 08/21 11:50pm 1ft 3s 3s 9
mph
1019.4mb 86f 85f
10:50pm 1.3ft 3s 3s 9 11 mph 1019.7mb 86f 86f
9:50pm 1.3ft 2s 3s 11 13 mph 1019.8mb 86f 86f
8:50pm 1.3ft 9s 3s 11 13 mph 1019.7mb 86f 86f
7:50pm 1ft 5s 3s 13 16 mph 1019.1mb 86f 86f
6:50pm 1ft 5s 4s 13
mph
1019mb 86f 86f
5:50pm 1ft 5s 4s 11 13 mph 1018.4mb 87f 86f
4:50pm 1ft 4s 4s 9 11 mph 1018.3mb 87f 86f
3:50pm 1ft 6s 5s 9
mph
1018.7mb 87f 86f
2:50pm 1ft 5s 5s 4 7 mph 1019.5mb 88f 86f
1:50pm 1ft 5s 5s 4 7 mph 1020.5mb 88f 86f
12:50pm 1ft 5s 5s 4 7 mph 1020.6mb 88f 85f
11:50am 0.7ft  -  4s  -  2 mph 1020.9mb 87f 85f
10:50am 1ft 5s 4s 4 7 mph 1021.1mb 86f 84f
9:50am 1ft 5s 4s 7 9 mph 1021.1mb 85f 84f
8:50am 1ft 6s 4s 7
mph
1021mb 85f 84f
7:50am 1ft 6s 4s 7 9 mph 1020.8mb 85f 84f
6:50am 1ft 5s 4s 9 11 mph 1019.9mb 85f 85f
5:50am 1ft 5s 4s 9
mph
1019.2mb 86f 85f
4:50am 1ft 6s 4s 7 9 mph 1018.8mb 86f 85f
3:50am 1ft 3s 3s 7 9 mph 1018.4mb 86f 85f
2:50am 1ft 3s 4s 7
mph
1018.6mb 85f 85f
1:50am 1ft 3s 3s 7 9 mph 1019mb 85f 85f
12:50am 1ft 6s 3s 7 11 mph 1019.2mb 86f 85f
Wed 08/20 11:50pm 1.3ft 6s 3s 9 11 mph 1019.4mb 86f 85f
10:50pm 1.3ft 3s 3s 9 11 mph 1019.4mb 86f 86f
9:50pm 1ft 6s 3s 9
mph
1019.3mb 86f 86f
8:50pm 1ft 6s 3s 11 13 mph 1018.2mb 86f 86f
7:50pm 1.3ft 3s 3s 11 13 mph 1017.7mb 86f 85f
6:50pm 1ft 3s 4s 9 11 mph 1017.7mb 87f 86f
5:50pm 1ft 3s 4s 13 16 mph 1017.6mb 87f 86f
4:50pm 1ft 6s 4s 11 13 mph 1017.7mb 87f 86f
3:50pm 1ft 6s 4s 7 9 mph 1017.8mb 87f 86f
2:50pm 1.3ft 6s 4s 7 9 mph 1018.2mb 88f 86f
1:50pm 1.3ft 4s 4s 7
mph
1018.7mb 87f 85f
12:50pm 1.3ft 4s 4s 7
mph
1019.2mb 87f 85f
11:50am 1.3ft 4s 4s 7
mph
1019.4mb 86f 84f
10:50am 1.6ft 4s 4s 7 9 mph 1019.5mb 86f 84f
9:50am 1.6ft 4s 4s 7 9 mph 1019.2mb 85f 84f
8:50am 1.6ft 4s 4s 11
mph
1018.5mb 85f 84f
7:50am 1.6ft 4s 4s 11 13 mph 1017.8mb 85f 85f
6:50am 2ft 4s 3s 11 13 mph 1017mb 85f 85f
5:50am 2ft 4s 3s 13 16 mph 1016.3mb 85f 85f
4:50am 1.6ft 4s 3s 7 11 mph 1015.8mb 85f 84f
3:50am 2ft 3s 3s 11 16 mph 1015.3mb 85f 85f
2:50am 1.6ft 3s 3s 13 16 mph 1014.9mb 85f 85f
1:50am 1.6ft 4s 3s 11 13 mph 1014.3mb 85f 84f
12:50am 2ft 3s 3s 9 11 mph 1014.2mb 85f 82f
Tue 08/19 11:50pm 1.6ft 3s 3s 7 9 mph 1016.4mb 85f 82f
10:50pm 2ft 4s 4s 13 16 mph 1016.9mb 85f 81f
9:50pm 2ft 4s 3s 9
mph
1016.5mb 85f 85f
8:50pm 2ft 3s 3s 11 13 mph 1015.8mb 85f 85f
7:50pm 2ft 4s 3s 18 20 mph 1013.6mb 85f 85f
6:50pm 1.6ft 4s 3s 16 18 mph 1014.3mb 86f 85f
5:50pm 1.6ft 4s 4s 13 16 mph 1014.4mb 86f 86f
4:50pm 1.6ft 4s 4s 13 16 mph 1014.4mb 86f 85f
3:50pm 1.6ft 4s 4s 13 18 mph 1014.6mb 86f 85f
2:50pm 1.6ft 4s 4s 11 13 mph 1015.1mb 86f 85f
1:50pm 1.6ft 5s 4s 11 13 mph 1015.7mb 85f 85f
12:50pm 2ft 5s 4s 9 11 mph 1016.3mb 85f 84f
11:50am 2.5ft 4s 4s 11
mph
1016.8mb 86f 83f
10:50am 2.5ft 5s 4s 9 11 mph 1017.2mb 85f 85f
9:50am 2.5ft 5s 4s 9 11 mph 1017mb 85f 82f
8:50am 2.5ft 4s 4s 13 18 mph 1016.3mb 85f 85f
7:50am 3ft 5s 4s 16 18 mph 1015.8mb 85f 85f
6:50am 3.5ft 5s 4s 18 20 mph 1015mb 85f 85f
5:50am 3.5ft 4s 4s 18 20 mph 1014.3mb 85f 85f
4:50am 3ft 4s 4s 18 20 mph 1014mb 85f 85f
3:50am 3ft 5s 4s 20 22 mph 1013.9mb 85f 85f
2:50am 3ft 4s 4s 20 22 mph 1013.8mb 85f 85f
1:50am 3ft 4s 4s 18 22 mph 1013.7mb 85f 85f
12:50am 2.5ft 4s 4s 18 22 mph 1014.2mb 85f 85f
Mon 08/18 11:50pm 2.5ft 4s 4s 18 20 mph 1014.6mb 85f 86f
10:50pm 2.5ft 4s 3s 18 20 mph 1014.7mb 85f 85f
9:50pm 2.5ft 4s 3s 16 18 mph 1014.9mb 86f 85f
8:50pm 2ft 4s 3s 16 18 mph 1014.7mb 86f 85f
7:50pm 2.5ft 4s 4s 13 16 mph 1014.8mb 86f 85f
6:50pm 2ft 4s 4s 13 18 mph 1014.6mb 86f 85f
5:50pm 2.5ft 4s 4s 13 18 mph 1014.5mb 86f 85f
4:50pm 2ft 4s 4s 16 18 mph 1014.5mb 86f 85f
3:50pm 2.5ft 4s 4s 13 16 mph 1014.9mb 86f 85f
2:50pm 2.5ft 4s 4s 13 18 mph 1015.2mb 86f 85f
1:50pm 2.5ft 5s 4s 16 18 mph 1015.9mb 86f 85f
12:50pm 2.5ft 4s 4s 13 16 mph 1016.6mb 86f 85f
11:50am 2.5ft 4s 4s 13 16 mph 1017.2mb 86f 85f
10:50am 2.5ft 4s 4s 13 18 mph 1017.4mb 85f 85f
9:50am 2.5ft 4s 4s 13 16 mph 1017.2mb 85f 85f
8:50am 2.5ft 4s 4s 13 16 mph 1017mb 85f 84f
7:50am 2ft 4s 3s 13 16 mph 1016.6mb 85f 85f
6:50am 2.5ft 4s 3s 16 20 mph 1016.3mb 85f 85f